sensor_id;sensor_type;location;lat;lon;timestamp;P1;durP1;ratioP1;P2;durP2;ratioP2
3967;SDS011;9221;42.646;23.380;2024-01-06T00:01:46;38.60;;;9.00;;
3967;SDS011;9221;42.646;23.380;2024-01-06T00:04:11;48.30;;;11.43;;
3967;SDS011;9221;42.646;23.380;2024-01-06T00:06:37;45.80;;;11.70;;
3967;SDS011;9221;42.646;23.380;2024-01-06T00:09:02;64.93;;;11.90;;
3967;SDS011;9221;42.646;23.380;2024-01-06T00:11:28;50.73;;;12.13;;
3967;SDS011;9221;42.646;23.380;2024-01-06T00:13:53;49.87;;;13.23;;
3967;SDS011;9221;42.646;23.380;2024-01-06T00:16:19;65.17;;;13.50;;
3967;SDS011;9221;42.646;23.380;2024-01-06T00:18:46;51.20;;;14.03;;
3967;SDS011;9221;42.646;23.380;2024-01-06T00:21:12;54.27;;;13.00;;
3967;SDS011;9221;42.646;23.380;2024-01-06T00:23:37;47.27;;;12.93;;
3967;SDS011;9221;42.646;23.380;2024-01-06T00:26:04;46.53;;;13.37;;
3967;SDS011;9221;42.646;23.380;2024-01-06T00:28:30;52.90;;;13.83;;
3967;SDS011;9221;42.646;23.380;2024-01-06T00:30:55;53.53;;;14.10;;
3967;SDS011;9221;42.646;23.380;2024-01-06T00:33:21;69.90;;;16.67;;
3967;SDS011;9221;42.646;23.380;2024-01-06T00:35:46;67.47;;;15.40;;
3967;SDS011;9221;42.646;23.380;2024-01-06T00:38:12;58.00;;;14.33;;
3967;SDS011;9221;42.646;23.380;2024-01-06T00:40:37;79.13;;;15.70;;
3967;SDS011;9221;42.646;23.380;2024-01-06T00:43:03;96.50;;;19.40;;
3967;SDS011;9221;42.646;23.380;2024-01-06T00:45:28;85.90;;;18.20;;
3967;SDS011;9221;42.646;23.380;2024-01-06T00:47:55;69.10;;;16.67;;
3967;SDS011;9221;42.646;23.380;2024-01-06T00:50:21;67.17;;;15.00;;
3967;SDS011;9221;42.646;23.380;2024-01-06T00:52:47;78.23;;;17.60;;
3967;SDS011;9221;42.646;23.380;2024-01-06T00:55:12;55.57;;;15.33;;
3967;SDS011;9221;42.646;23.380;2024-01-06T00:57:38;70.43;;;15.80;;
3967;SDS011;9221;42.646;23.380;2024-01-06T01:00:04;59.83;;;14.80;;
3967;SDS011;9221;42.646;23.380;2024-01-06T01:02:31;65.73;;;15.60;;
3967;SDS011;9221;42.646;23.380;2024-01-06T01:04:56;81.03;;;17.27;;
3967;SDS011;9221;42.646;23.380;2024-01-06T01:07:22;65.57;;;15.63;;
3967;SDS011;9221;42.646;23.380;2024-01-06T01:09:48;53.17;;;14.63;;
3967;SDS011;9221;42.646;23.380;2024-01-06T01:12:14;73.30;;;16.00;;
3967;SDS011;9221;42.646;23.380;2024-01-06T01:14:39;50.97;;;14.30;;
3967;SDS011;9221;42.646;23.380;2024-01-06T01:17:05;57.83;;;14.73;;
3967;SDS011;9221;42.646;23.380;2024-01-06T01:19:30;57.27;;;14.40;;
3967;SDS011;9221;42.646;23.380;2024-01-06T01:21:56;64.80;;;16.23;;
3967;SDS011;9221;42.646;23.380;2024-01-06T01:24:22;59.87;;;15.20;;
3967;SDS011;9221;42.646;23.380;2024-01-06T01:26:48;71.97;;;16.10;;
3967;SDS011;9221;42.646;23.380;2024-01-06T01:29:14;80.13;;;15.70;;
3967;SDS011;9221;42.646;23.380;2024-01-06T01:31:40;47.30;;;12.33;;
3967;SDS011;9221;42.646;23.380;2024-01-06T01:34:05;62.80;;;14.27;;
3967;SDS011;9221;42.646;23.380;2024-01-06T01:36:31;48.17;;;12.37;;
3967;SDS011;9221;42.646;23.380;2024-01-06T01:38:56;54.67;;;13.03;;
3967;SDS011;9221;42.646;23.380;2024-01-06T01:41:22;68.80;;;13.30;;
3967;SDS011;9221;42.646;23.380;2024-01-06T01:43:47;36.03;;;8.77;;
3967;SDS011;9221;42.646;23.380;2024-01-06T01:46:13;32.43;;;7.57;;
3967;SDS011;9221;42.646;23.380;2024-01-06T01:48:38;39.90;;;11.00;;
3967;SDS011;9221;42.646;23.380;2024-01-06T01:51:05;51.40;;;11.50;;
3967;SDS011;9221;42.646;23.380;2024-01-06T01:53:32;60.67;;;14.63;;
3967;SDS011;9221;42.646;23.380;2024-01-06T01:55:58;47.73;;;12.80;;
3967;SDS011;9221;42.646;23.380;2024-01-06T01:58:24;70.47;;;15.70;;
3967;SDS011;9221;42.646;23.380;2024-01-06T02:00:50;56.23;;;13.97;;
3967;SDS011;9221;42.646;23.380;2024-01-06T02:03:15;83.63;;;16.37;;
3967;SDS011;9221;42.646;23.380;2024-01-06T02:05:41;57.70;;;15.80;;
3967;SDS011;9221;42.646;23.380;2024-01-06T02:08:06;53.90;;;13.10;;
3967;SDS011;9221;42.646;23.380;2024-01-06T02:10:32;50.23;;;11.17;;
3967;SDS011;9221;42.646;23.380;2024-01-06T02:13:06;42.80;;;9.17;;
3967;SDS011;9221;42.646;23.380;2024-01-06T02:15:33;34.23;;;7.80;;
3967;SDS011;9221;42.646;23.380;2024-01-06T02:17:59;29.67;;;7.37;;
3967;SDS011;9221;42.646;23.380;2024-01-06T02:20:25;27.80;;;6.20;;
3967;SDS011;9221;42.646;23.380;2024-01-06T02:22:52;20.90;;;4.80;;
3967;SDS011;9221;42.646;23.380;2024-01-06T02:28:02;25.90;;;5.30;;
3967;SDS011;9221;42.646;23.380;2024-01-06T02:30:28;22.33;;;5.40;;
3967;SDS011;9221;42.646;23.380;2024-01-06T02:32:53;34.27;;;8.03;;
3967;SDS011;9221;42.646;23.380;2024-01-06T02:35:19;32.90;;;7.77;;
3967;SDS011;9221;42.646;23.380;2024-01-06T02:37:45;35.27;;;6.87;;
3967;SDS011;9221;42.646;23.380;2024-01-06T02:40:11;42.80;;;9.50;;
3967;SDS011;9221;42.646;23.380;2024-01-06T02:42:38;30.07;;;7.33;;
3967;SDS011;9221;42.646;23.380;2024-01-06T02:45:04;37.67;;;9.47;;
3967;SDS011;9221;42.646;23.380;2024-01-06T02:47:29;52.97;;;11.33;;
3967;SDS011;9221;42.646;23.380;2024-01-06T02:49:55;40.60;;;9.67;;
3967;SDS011;9221;42.646;23.380;2024-01-06T02:52:20;54.67;;;12.80;;
3967;SDS011;9221;42.646;23.380;2024-01-06T02:54:47;59.37;;;12.77;;
3967;SDS011;9221;42.646;23.380;2024-01-06T02:57:13;50.07;;;12.20;;
3967;SDS011;9221;42.646;23.380;2024-01-06T02:59:39;42.67;;;11.03;;
3967;SDS011;9221;42.646;23.380;2024-01-06T03:02:04;54.73;;;12.70;;
3967;SDS011;9221;42.646;23.380;2024-01-06T03:04:30;40.27;;;11.03;;
3967;SDS011;9221;42.646;23.380;2024-01-06T03:06:55;39.27;;;10.30;;
3967;SDS011;9221;42.646;23.380;2024-01-06T03:09:21;57.77;;;12.30;;
3967;SDS011;9221;42.646;23.380;2024-01-06T03:11:46;60.83;;;11.50;;
3967;SDS011;9221;42.646;23.380;2024-01-06T03:14:12;37.83;;;8.77;;
3967;SDS011;9221;42.646;23.380;2024-01-06T03:16:37;46.80;;;10.17;;
3967;SDS011;9221;42.646;23.380;2024-01-06T03:19:03;23.50;;;6.33;;
3967;SDS011;9221;42.646;23.380;2024-01-06T03:21:28;27.47;;;7.50;;
3967;SDS011;9221;42.646;23.380;2024-01-06T03:23:54;23.90;;;6.47;;
3967;SDS011;9221;42.646;23.380;2024-01-06T03:26:20;29.03;;;7.07;;
3967;SDS011;9221;42.646;23.380;2024-01-06T03:28:48;30.13;;;6.43;;
3967;SDS011;9221;42.646;23.380;2024-01-06T03:31:14;25.47;;;5.27;;
3967;SDS011;9221;42.646;23.380;2024-01-06T03:33:40;26.33;;;5.47;;
3967;SDS011;9221;42.646;23.380;2024-01-06T03:36:05;24.63;;;5.80;;
3967;SDS011;9221;42.646;23.380;2024-01-06T03:38:32;23.80;;;5.47;;
3967;SDS011;9221;42.646;23.380;2024-01-06T03:40:57;23.27;;;5.87;;
3967;SDS011;9221;42.646;23.380;2024-01-06T03:43:23;23.10;;;5.37;;
3967;SDS011;9221;42.646;23.380;2024-01-06T03:45:48;23.70;;;5.20;;
3967;SDS011;9221;42.646;23.380;2024-01-06T03:48:14;17.50;;;4.53;;
3967;SDS011;9221;42.646;23.380;2024-01-06T03:50:39;27.77;;;6.47;;
3967;SDS011;9221;42.646;23.380;2024-01-06T03:53:05;20.40;;;5.90;;
3967;SDS011;9221;42.646;23.380;2024-01-06T03:55:30;19.87;;;5.00;;
3967;SDS011;9221;42.646;23.380;2024-01-06T03:57:56;33.67;;;6.20;;
3967;SDS011;9221;42.646;23.380;2024-01-06T04:00:21;25.60;;;5.70;;
3967;SDS011;9221;42.646;23.380;2024-01-06T04:02:47;23.53;;;4.87;;
3967;SDS011;9221;42.646;23.380;2024-01-06T04:05:12;18.83;;;4.90;;
3967;SDS011;9221;42.646;23.380;2024-01-06T04:07:38;26.83;;;5.47;;
3967;SDS011;9221;42.646;23.380;2024-01-06T04:10:04;30.37;;;7.27;;
3967;SDS011;9221;42.646;23.380;2024-01-06T04:12:29;19.93;;;5.10;;
3967;SDS011;9221;42.646;23.380;2024-01-06T04:14:55;19.27;;;4.70;;
3967;SDS011;9221;42.646;23.380;2024-01-06T04:17:20;19.53;;;4.83;;
3967;SDS011;9221;42.646;23.380;2024-01-06T04:19:46;23.93;;;5.10;;
3967;SDS011;9221;42.646;23.380;2024-01-06T04:22:11;34.73;;;5.03;;
3967;SDS011;9221;42.646;23.380;2024-01-06T04:24:37;19.20;;;4.60;;
3967;SDS011;9221;42.646;23.380;2024-01-06T04:27:04;25.37;;;6.17;;
3967;SDS011;9221;42.646;23.380;2024-01-06T04:29:29;26.93;;;5.73;;
3967;SDS011;9221;42.646;23.380;2024-01-06T04:31:55;22.20;;;5.47;;
3967;SDS011;9221;42.646;23.380;2024-01-06T04:34:21;22.70;;;5.47;;
3967;SDS011;9221;42.646;23.380;2024-01-06T04:36:46;23.90;;;5.90;;
3967;SDS011;9221;42.646;23.380;2024-01-06T04:39:12;23.73;;;5.43;;
3967;SDS011;9221;42.646;23.380;2024-01-06T04:41:38;22.83;;;5.63;;
3967;SDS011;9221;42.646;23.380;2024-01-06T04:44:05;20.27;;;5.10;;
3967;SDS011;9221;42.646;23.380;2024-01-06T04:46:31;23.93;;;5.50;;
3967;SDS011;9221;42.646;23.380;2024-01-06T04:48:56;22.90;;;6.10;;
3967;SDS011;9221;42.646;23.380;2024-01-06T04:51:22;24.87;;;5.77;;
3967;SDS011;9221;42.646;23.380;2024-01-06T04:53:48;23.23;;;6.60;;
3967;SDS011;9221;42.646;23.380;2024-01-06T04:56:13;21.73;;;5.67;;
3967;SDS011;9221;42.646;23.380;2024-01-06T04:58:39;24.87;;;6.40;;
3967;SDS011;9221;42.646;23.380;2024-01-06T05:01:04;18.97;;;5.93;;
3967;SDS011;9221;42.646;23.380;2024-01-06T05:03:30;23.57;;;5.83;;
3967;SDS011;9221;42.646;23.380;2024-01-06T05:05:56;26.97;;;6.37;;
3967;SDS011;9221;42.646;23.380;2024-01-06T05:08:21;22.60;;;5.80;;
3967;SDS011;9221;42.646;23.380;2024-01-06T05:10:48;24.40;;;5.47;;
3967;SDS011;9221;42.646;23.380;2024-01-06T05:13:14;24.73;;;6.17;;
3967;SDS011;9221;42.646;23.380;2024-01-06T05:15:39;26.50;;;6.40;;
3967;SDS011;9221;42.646;23.380;2024-01-06T05:18:05;25.70;;;6.60;;
3967;SDS011;9221;42.646;23.380;2024-01-06T05:20:31;28.30;;;6.57;;
3967;SDS011;9221;42.646;23.380;2024-01-06T05:22:56;32.73;;;7.17;;
3967;SDS011;9221;42.646;23.380;2024-01-06T05:25:21;27.63;;;6.40;;
3967;SDS011;9221;42.646;23.380;2024-01-06T05:27:47;32.40;;;7.77;;
3967;SDS011;9221;42.646;23.380;2024-01-06T05:30:12;31.77;;;7.93;;
3967;SDS011;9221;42.646;23.380;2024-01-06T05:32:38;25.93;;;6.67;;
3967;SDS011;9221;42.646;23.380;2024-01-06T05:35:04;22.90;;;5.93;;
3967;SDS011;9221;42.646;23.380;2024-01-06T05:37:29;32.97;;;7.43;;
3967;SDS011;9221;42.646;23.380;2024-01-06T05:39:56;25.07;;;5.60;;
3967;SDS011;9221;42.646;23.380;2024-01-06T05:42:23;20.17;;;4.77;;
3967;SDS011;9221;42.646;23.380;2024-01-06T05:44:49;20.10;;;5.10;;
3967;SDS011;9221;42.646;23.380;2024-01-06T05:47:15;23.17;;;5.27;;
3967;SDS011;9221;42.646;23.380;2024-01-06T05:49:42;20.17;;;5.37;;
3967;SDS011;9221;42.646;23.380;2024-01-06T05:52:08;27.37;;;5.50;;
3967;SDS011;9221;42.646;23.380;2024-01-06T05:54:34;23.50;;;5.50;;
3967;SDS011;9221;42.646;23.380;2024-01-06T05:56:59;23.60;;;6.17;;
3967;SDS011;9221;42.646;23.380;2024-01-06T05:59:25;26.70;;;6.87;;
3967;SDS011;9221;42.646;23.380;2024-01-06T06:01:50;16.80;;;4.53;;
3967;SDS011;9221;42.646;23.380;2024-01-06T06:04:17;28.77;;;6.37;;
3967;SDS011;9221;42.646;23.380;2024-01-06T06:06:44;22.30;;;5.70;;
3967;SDS011;9221;42.646;23.380;2024-01-06T06:09:09;22.07;;;5.80;;
3967;SDS011;9221;42.646;23.380;2024-01-06T06:11:35;21.10;;;5.10;;
3967;SDS011;9221;42.646;23.380;2024-01-06T06:14:01;20.23;;;5.47;;
3967;SDS011;9221;42.646;23.380;2024-01-06T06:16:28;13.97;;;3.80;;
3967;SDS011;9221;42.646;23.380;2024-01-06T06:18:54;22.07;;;5.63;;
3967;SDS011;9221;42.646;23.380;2024-01-06T06:21:20;15.97;;;3.93;;
3967;SDS011;9221;42.646;23.380;2024-01-06T06:23:46;20.10;;;4.67;;
3967;SDS011;9221;42.646;23.380;2024-01-06T06:26:11;19.37;;;4.90;;
3967;SDS011;9221;42.646;23.380;2024-01-06T06:28:37;19.47;;;4.40;;
3967;SDS011;9221;42.646;23.380;2024-01-06T06:31:02;16.23;;;3.93;;
3967;SDS011;9221;42.646;23.380;2024-01-06T06:33:28;16.53;;;4.30;;
3967;SDS011;9221;42.646;23.380;2024-01-06T06:35:54;16.13;;;4.03;;
3967;SDS011;9221;42.646;23.380;2024-01-06T06:38:20;19.80;;;4.63;;
3967;SDS011;9221;42.646;23.380;2024-01-06T06:40:46;14.77;;;3.73;;
3967;SDS011;9221;42.646;23.380;2024-01-06T06:43:12;16.63;;;4.20;;
3967;SDS011;9221;42.646;23.380;2024-01-06T06:45:39;23.93;;;4.10;;
3967;SDS011;9221;42.646;23.380;2024-01-06T06:48:04;15.60;;;4.20;;
3967;SDS011;9221;42.646;23.380;2024-01-06T06:50:30;15.30;;;3.93;;
3967;SDS011;9221;42.646;23.380;2024-01-06T06:52:55;16.17;;;3.90;;
3967;SDS011;9221;42.646;23.380;2024-01-06T06:55:21;16.63;;;4.20;;
3967;SDS011;9221;42.646;23.380;2024-01-06T06:57:46;19.27;;;4.40;;
3967;SDS011;9221;42.646;23.380;2024-01-06T07:00:12;24.40;;;4.93;;
3967;SDS011;9221;42.646;23.380;2024-01-06T07:02:38;22.23;;;5.23;;
3967;SDS011;9221;42.646;23.380;2024-01-06T07:05:03;16.40;;;4.40;;
3967;SDS011;9221;42.646;23.380;2024-01-06T07:07:32;21.03;;;5.40;;
3967;SDS011;9221;42.646;23.380;2024-01-06T07:09:58;15.47;;;4.47;;
3967;SDS011;9221;42.646;23.380;2024-01-06T07:12:25;20.30;;;5.37;;
3967;SDS011;9221;42.646;23.380;2024-01-06T07:14:52;19.20;;;4.67;;
3967;SDS011;9221;42.646;23.380;2024-01-06T07:17:17;20.10;;;4.77;;
3967;SDS011;9221;42.646;23.380;2024-01-06T07:19:43;17.17;;;5.07;;
3967;SDS011;9221;42.646;23.380;2024-01-06T07:22:08;28.17;;;6.40;;
3967;SDS011;9221;42.646;23.380;2024-01-06T07:24:34;22.07;;;5.17;;
3967;SDS011;9221;42.646;23.380;2024-01-06T07:27:01;21.53;;;6.00;;
3967;SDS011;9221;42.646;23.380;2024-01-06T07:29:28;29.83;;;6.80;;
3967;SDS011;9221;42.646;23.380;2024-01-06T07:31:54;26.47;;;6.63;;
3967;SDS011;9221;42.646;23.380;2024-01-06T07:34:19;30.17;;;7.03;;
3967;SDS011;9221;42.646;23.380;2024-01-06T07:36:45;38.13;;;8.47;;
3967;SDS011;9221;42.646;23.380;2024-01-06T07:39:10;39.37;;;8.97;;
3967;SDS011;9221;42.646;23.380;2024-01-06T07:41:36;23.00;;;6.10;;
3967;SDS011;9221;42.646;23.380;2024-01-06T07:44:01;25.10;;;6.87;;
3967;SDS011;9221;42.646;23.380;2024-01-06T07:46:30;29.27;;;6.97;;
3967;SDS011;9221;42.646;23.380;2024-01-06T07:48:57;28.90;;;6.80;;
3967;SDS011;9221;42.646;23.380;2024-01-06T07:51:22;28.90;;;7.53;;
3967;SDS011;9221;42.646;23.380;2024-01-06T07:53:48;43.47;;;8.70;;
3967;SDS011;9221;42.646;23.380;2024-01-06T07:56:13;32.33;;;8.60;;
3967;SDS011;9221;42.646;23.380;2024-01-06T07:58:39;31.93;;;8.20;;
3967;SDS011;9221;42.646;23.380;2024-01-06T08:01:04;27.70;;;7.43;;
3967;SDS011;9221;42.646;23.380;2024-01-06T08:03:30;23.53;;;6.17;;
3967;SDS011;9221;42.646;23.380;2024-01-06T08:05:55;26.73;;;6.00;;
3967;SDS011;9221;42.646;23.380;2024-01-06T08:08:21;19.23;;;4.67;;
3967;SDS011;9221;42.646;23.380;2024-01-06T08:10:47;22.30;;;5.10;;
3967;SDS011;9221;42.646;23.380;2024-01-06T08:13:13;25.73;;;5.60;;
3967;SDS011;9221;42.646;23.380;2024-01-06T08:15:39;13.97;;;3.63;;
3967;SDS011;9221;42.646;23.380;2024-01-06T08:18:04;19.10;;;4.80;;
3967;SDS011;9221;42.646;23.380;2024-01-06T08:20:30;18.83;;;4.50;;
3967;SDS011;9221;42.646;23.380;2024-01-06T08:22:55;18.33;;;3.57;;
3967;SDS011;9221;42.646;23.380;2024-01-06T08:25:21;12.20;;;3.50;;
3967;SDS011;9221;42.646;23.380;2024-01-06T08:27:46;19.50;;;4.13;;
3967;SDS011;9221;42.646;23.380;2024-01-06T08:30:12;17.70;;;4.10;;
3967;SDS011;9221;42.646;23.380;2024-01-06T08:32:38;12.60;;;3.67;;
3967;SDS011;9221;42.646;23.380;2024-01-06T08:35:03;17.17;;;4.47;;
3967;SDS011;9221;42.646;23.380;2024-01-06T08:37:29;17.67;;;4.27;;
3967;SDS011;9221;42.646;23.380;2024-01-06T08:39:55;13.73;;;3.53;;
3967;SDS011;9221;42.646;23.380;2024-01-06T08:42:21;14.93;;;3.90;;
3967;SDS011;9221;42.646;23.380;2024-01-06T08:44:47;16.77;;;3.80;;
3967;SDS011;9221;42.646;23.380;2024-01-06T08:47:12;15.57;;;3.93;;
3967;SDS011;9221;42.646;23.380;2024-01-06T08:49:38;20.93;;;4.97;;
3967;SDS011;9221;42.646;23.380;2024-01-06T08:52:04;17.33;;;4.80;;
3967;SDS011;9221;42.646;23.380;2024-01-06T08:54:30;23.67;;;5.07;;
3967;SDS011;9221;42.646;23.380;2024-01-06T08:56:57;21.33;;;5.37;;
3967;SDS011;9221;42.646;23.380;2024-01-06T08:59:22;26.90;;;6.30;;
3967;SDS011;9221;42.646;23.380;2024-01-06T09:01:48;30.63;;;7.17;;
3967;SDS011;9221;42.646;23.380;2024-01-06T09:04:14;33.40;;;7.17;;
3967;SDS011;9221;42.646;23.380;2024-01-06T09:06:40;28.37;;;7.30;;
3967;SDS011;9221;42.646;23.380;2024-01-06T09:09:06;38.17;;;8.77;;
3967;SDS011;9221;42.646;23.380;2024-01-06T09:11:33;46.20;;;10.60;;
3967;SDS011;9221;42.646;23.380;2024-01-06T09:13:59;27.57;;;6.63;;
3967;SDS011;9221;42.646;23.380;2024-01-06T09:16:24;28.53;;;7.67;;
3967;SDS011;9221;42.646;23.380;2024-01-06T09:18:50;31.87;;;8.00;;
3967;SDS011;9221;42.646;23.380;2024-01-06T09:21:15;29.80;;;8.47;;
3967;SDS011;9221;42.646;23.380;2024-01-06T09:23:42;29.97;;;8.53;;
3967;SDS011;9221;42.646;23.380;2024-01-06T09:26:08;39.23;;;9.40;;
3967;SDS011;9221;42.646;23.380;2024-01-06T09:28:33;55.37;;;9.70;;
3967;SDS011;9221;42.646;23.380;2024-01-06T09:30:59;71.13;;;18.40;;
3967;SDS011;9221;42.646;23.380;2024-01-06T09:33:24;46.30;;;11.40;;
3967;SDS011;9221;42.646;23.380;2024-01-06T09:35:50;49.37;;;11.47;;
3967;SDS011;9221;42.646;23.380;2024-01-06T09:38:15;43.27;;;11.20;;
3967;SDS011;9221;42.646;23.380;2024-01-06T09:40:43;33.80;;;9.83;;
3967;SDS011;9221;42.646;23.380;2024-01-06T09:43:10;42.30;;;12.00;;
3967;SDS011;9221;42.646;23.380;2024-01-06T09:45:36;41.20;;;11.63;;
3967;SDS011;9221;42.646;23.380;2024-01-06T09:48:12;50.03;;;12.53;;
3967;SDS011;9221;42.646;23.380;2024-01-06T09:50:42;51.10;;;12.83;;
3967;SDS011;9221;42.646;23.380;2024-01-06T09:53:12;46.50;;;11.83;;
3967;SDS011;9221;42.646;23.380;2024-01-06T09:55:39;54.67;;;15.07;;
3967;SDS011;9221;42.646;23.380;2024-01-06T09:58:05;56.27;;;14.93;;
3967;SDS011;9221;42.646;23.380;2024-01-06T10:00:31;62.17;;;15.60;;
3967;SDS011;9221;42.646;23.380;2024-01-06T10:02:57;69.70;;;16.27;;
3967;SDS011;9221;42.646;23.380;2024-01-06T10:05:23;70.37;;;18.40;;
3967;SDS011;9221;42.646;23.380;2024-01-06T10:07:49;81.20;;;18.00;;
3967;SDS011;9221;42.646;23.380;2024-01-06T10:10:14;66.27;;;17.33;;
3967;SDS011;9221;42.646;23.380;2024-01-06T10:12:41;57.87;;;17.10;;
3967;SDS011;9221;42.646;23.380;2024-01-06T10:15:08;72.17;;;19.80;;
3967;SDS011;9221;42.646;23.380;2024-01-06T10:17:41;82.60;;;21.30;;
3967;SDS011;9221;42.646;23.380;2024-01-06T10:20:10;81.43;;;20.57;;
3967;SDS011;9221;42.646;23.380;2024-01-06T10:22:37;67.47;;;19.17;;
3967;SDS011;9221;42.646;23.380;2024-01-06T10:25:05;83.87;;;20.20;;
3967;SDS011;9221;42.646;23.380;2024-01-06T10:27:35;62.30;;;18.77;;
3967;SDS011;9221;42.646;23.380;2024-01-06T10:30:05;86.83;;;20.53;;
3967;SDS011;9221;42.646;23.380;2024-01-06T10:32:32;78.43;;;20.30;;
3967;SDS011;9221;42.646;23.380;2024-01-06T10:34:58;71.37;;;19.90;;
3967;SDS011;9221;42.646;23.380;2024-01-06T10:37:25;72.03;;;17.27;;
3967;SDS011;9221;42.646;23.380;2024-01-06T10:42:32;57.23;;;15.80;;
3967;SDS011;9221;42.646;23.380;2024-01-06T10:44:58;54.07;;;15.40;;
3967;SDS011;9221;42.646;23.380;2024-01-06T10:47:24;54.20;;;16.30;;
3967;SDS011;9221;42.646;23.380;2024-01-06T10:49:51;55.30;;;15.53;;
3967;SDS011;9221;42.646;23.380;2024-01-06T10:52:20;58.33;;;15.47;;
3967;SDS011;9221;42.646;23.380;2024-01-06T10:54:47;55.13;;;14.50;;
3967;SDS011;9221;42.646;23.380;2024-01-06T10:57:16;61.40;;;14.90;;
3967;SDS011;9221;42.646;23.380;2024-01-06T10:59:44;72.67;;;14.93;;
3967;SDS011;9221;42.646;23.380;2024-01-06T11:02:13;58.50;;;13.70;;
3967;SDS011;9221;42.646;23.380;2024-01-06T11:04:41;47.17;;;13.37;;
3967;SDS011;9221;42.646;23.380;2024-01-06T11:07:09;58.53;;;14.13;;
3967;SDS011;9221;42.646;23.380;2024-01-06T11:09:35;51.50;;;13.37;;
3967;SDS011;9221;42.646;23.380;2024-01-06T11:12:04;68.40;;;14.13;;
3967;SDS011;9221;42.646;23.380;2024-01-06T11:14:35;66.00;;;13.47;;
3967;SDS011;9221;42.646;23.380;2024-01-06T11:17:02;66.50;;;13.23;;
3967;SDS011;9221;42.646;23.380;2024-01-06T11:24:47;37.93;;;11.07;;
3967;SDS011;9221;42.646;23.380;2024-01-06T11:27:18;42.87;;;11.80;;
3967;SDS011;9221;42.646;23.380;2024-01-06T11:29:47;40.83;;;11.00;;
3967;SDS011;9221;42.646;23.380;2024-01-06T11:34:50;42.13;;;11.10;;
3967;SDS011;9221;42.646;23.380;2024-01-06T11:37:18;34.77;;;8.90;;
3967;SDS011;9221;42.646;23.380;2024-01-06T11:39:45;55.57;;;11.30;;
3967;SDS011;9221;42.646;23.380;2024-01-06T11:42:10;45.50;;;9.23;;
3967;SDS011;9221;42.646;23.380;2024-01-06T11:44:37;24.40;;;6.77;;
3967;SDS011;9221;42.646;23.380;2024-01-06T11:47:04;24.27;;;7.10;;
3967;SDS011;9221;42.646;23.380;2024-01-06T11:49:30;31.73;;;8.30;;
3967;SDS011;9221;42.646;23.380;2024-01-06T11:51:56;38.80;;;7.63;;
3967;SDS011;9221;42.646;23.380;2024-01-06T11:54:22;29.87;;;8.70;;
3967;SDS011;9221;42.646;23.380;2024-01-06T11:56:48;43.90;;;9.33;;
3967;SDS011;9221;42.646;23.380;2024-01-06T11:59:14;39.47;;;9.50;;
3967;SDS011;9221;42.646;23.380;2024-01-06T12:01:40;34.63;;;9.77;;
3967;SDS011;9221;42.646;23.380;2024-01-06T12:04:06;51.77;;;11.93;;
3967;SDS011;9221;42.646;23.380;2024-01-06T12:06:32;36.40;;;9.80;;
3967;SDS011;9221;42.646;23.380;2024-01-06T12:09:06;35.60;;;10.07;;
3967;SDS011;9221;42.646;23.380;2024-01-06T12:11:32;41.07;;;10.37;;
3967;SDS011;9221;42.646;23.380;2024-01-06T12:13:58;42.13;;;11.20;;
3967;SDS011;9221;42.646;23.380;2024-01-06T12:16:23;36.07;;;10.20;;
3967;SDS011;9221;42.646;23.380;2024-01-06T12:18:55;52.10;;;13.40;;
3967;SDS011;9221;42.646;23.380;2024-01-06T12:21:22;38.23;;;10.27;;
3967;SDS011;9221;42.646;23.380;2024-01-06T12:23:48;52.00;;;11.47;;
3967;SDS011;9221;42.646;23.380;2024-01-06T12:26:14;36.63;;;9.97;;
3967;SDS011;9221;42.646;23.380;2024-01-06T12:28:44;50.60;;;12.20;;
3967;SDS011;9221;42.646;23.380;2024-01-06T12:31:10;53.57;;;12.23;;
3967;SDS011;9221;42.646;23.380;2024-01-06T12:33:37;40.47;;;10.47;;
3967;SDS011;9221;42.646;23.380;2024-01-06T12:36:04;48.40;;;12.30;;
3967;SDS011;9221;42.646;23.380;2024-01-06T12:38:31;42.23;;;11.03;;
3967;SDS011;9221;42.646;23.380;2024-01-06T12:40:56;45.60;;;11.87;;
3967;SDS011;9221;42.646;23.380;2024-01-06T12:43:22;28.07;;;8.90;;
3967;SDS011;9221;42.646;23.380;2024-01-06T12:45:47;35.90;;;9.07;;
3967;SDS011;9221;42.646;23.380;2024-01-06T12:48:14;40.47;;;9.80;;
3967;SDS011;9221;42.646;23.380;2024-01-06T12:50:39;44.03;;;10.57;;
3967;SDS011;9221;42.646;23.380;2024-01-06T12:53:05;46.40;;;10.43;;
3967;SDS011;9221;42.646;23.380;2024-01-06T12:55:30;39.07;;;8.73;;
3967;SDS011;9221;42.646;23.380;2024-01-06T12:57:56;44.17;;;10.40;;
3967;SDS011;9221;42.646;23.380;2024-01-06T13:00:21;47.30;;;11.17;;
3967;SDS011;9221;42.646;23.380;2024-01-06T13:02:47;33.00;;;8.50;;
3967;SDS011;9221;42.646;23.380;2024-01-06T13:05:12;45.70;;;10.17;;
3967;SDS011;9221;42.646;23.380;2024-01-06T13:07:38;30.37;;;9.10;;
3967;SDS011;9221;42.646;23.380;2024-01-06T13:10:04;42.87;;;10.63;;
3967;SDS011;9221;42.646;23.380;2024-01-06T13:12:30;39.70;;;9.67;;
3967;SDS011;9221;42.646;23.380;2024-01-06T13:14:56;58.40;;;10.33;;
3967;SDS011;9221;42.646;23.380;2024-01-06T13:17:22;39.70;;;9.70;;
3967;SDS011;9221;42.646;23.380;2024-01-06T13:19:47;52.90;;;10.33;;
3967;SDS011;9221;42.646;23.380;2024-01-06T13:22:13;30.90;;;7.80;;
3967;SDS011;9221;42.646;23.380;2024-01-06T13:24:39;29.93;;;6.87;;
3967;SDS011;9221;42.646;23.380;2024-01-06T13:27:05;24.73;;;6.70;;
3967;SDS011;9221;42.646;23.380;2024-01-06T13:29:31;35.00;;;7.23;;
3967;SDS011;9221;42.646;23.380;2024-01-06T13:31:57;45.03;;;8.87;;
3967;SDS011;9221;42.646;23.380;2024-01-06T13:34:24;28.37;;;7.07;;
3967;SDS011;9221;42.646;23.380;2024-01-06T13:36:50;40.07;;;8.57;;
3967;SDS011;9221;42.646;23.380;2024-01-06T13:39:15;33.93;;;8.13;;
3967;SDS011;9221;42.646;23.380;2024-01-06T13:41:47;40.57;;;8.03;;
3967;SDS011;9221;42.646;23.380;2024-01-06T13:44:13;26.40;;;6.60;;
3967;SDS011;9221;42.646;23.380;2024-01-06T13:46:39;26.90;;;6.67;;
3967;SDS011;9221;42.646;23.380;2024-01-06T13:49:10;25.73;;;6.17;;
3967;SDS011;9221;42.646;23.380;2024-01-06T13:51:37;20.60;;;6.00;;
3967;SDS011;9221;42.646;23.380;2024-01-06T13:54:03;23.60;;;6.10;;
3967;SDS011;9221;42.646;23.380;2024-01-06T13:56:29;27.63;;;6.00;;
3967;SDS011;9221;42.646;23.380;2024-01-06T13:58:54;24.00;;;6.10;;
3967;SDS011;9221;42.646;23.380;2024-01-06T14:01:20;23.40;;;5.67;;
3967;SDS011;9221;42.646;23.380;2024-01-06T14:03:45;29.13;;;6.00;;
3967;SDS011;9221;42.646;23.380;2024-01-06T14:06:11;25.40;;;5.50;;
3967;SDS011;9221;42.646;23.380;2024-01-06T14:08:36;23.10;;;5.93;;
3967;SDS011;9221;42.646;23.380;2024-01-06T14:11:02;31.90;;;6.70;;
3967;SDS011;9221;42.646;23.380;2024-01-06T14:13:28;32.60;;;7.10;;
3967;SDS011;9221;42.646;23.380;2024-01-06T14:15:53;33.17;;;7.20;;
3967;SDS011;9221;42.646;23.380;2024-01-06T14:18:19;35.87;;;7.73;;
3967;SDS011;9221;42.646;23.380;2024-01-06T14:20:45;28.07;;;6.97;;
3967;SDS011;9221;42.646;23.380;2024-01-06T14:23:11;35.90;;;7.17;;
3967;SDS011;9221;42.646;23.380;2024-01-06T14:25:36;36.80;;;7.30;;
3967;SDS011;9221;42.646;23.380;2024-01-06T14:28:02;34.73;;;7.93;;
3967;SDS011;9221;42.646;23.380;2024-01-06T14:30:27;30.93;;;6.77;;
3967;SDS011;9221;42.646;23.380;2024-01-06T14:32:54;29.27;;;6.60;;
3967;SDS011;9221;42.646;23.380;2024-01-06T14:35:19;35.77;;;6.90;;
3967;SDS011;9221;42.646;23.380;2024-01-06T14:37:45;30.53;;;7.80;;
3967;SDS011;9221;42.646;23.380;2024-01-06T14:40:11;39.90;;;9.37;;
3967;SDS011;9221;42.646;23.380;2024-01-06T14:42:37;32.80;;;8.43;;
3967;SDS011;9221;42.646;23.380;2024-01-06T14:45:03;41.47;;;8.97;;
3967;SDS011;9221;42.646;23.380;2024-01-06T14:47:29;44.23;;;8.23;;
3967;SDS011;9221;42.646;23.380;2024-01-06T14:49:54;32.60;;;8.90;;